aviador You're here:

KBNO Decoded Metar

BURNS in OR, USA
Report Time2017-08-23 23:53:00
UTC Time2017-08-24 00:57:02
Flight Rules vfr VFR
Wind220° at 08 kt
W.Decomp.*RWY 21: 7.9 kt HW 1.1 kt LCW
RWY 12: 1.1 kt HW 7.9 kt RCW
W.Rank220° ranks 9
Current wind is below 220° avg. (8.1)
Visibility9999 m
Phenomena:N/A
Clouds:N/A
Expected CloudBase > 8,800 ft AGL from Temp-Dew spread
CeilingNone
Temp28°C (ISA +21)
Dew Point06°C (25% RH)
Heat Index26.9°C
AAT24.2°C
QNH1017 hPa
Density Alt6,562 ft
Elevation4,147 ft
Report Wrong Elevation
Raw Report
METAR KBNO 232353Z AUTO 22008KT 10SM CLR 28/06 A3002 RMK AO2 SLP127
T02780061 10311 20267 56014 TSNO=

Extra information for KBNO:More info

Metar Taf Metar & Taf Last 4 Metars F.Rules Stats Wind Profile Meteogram Temp Stats Airport Information Weather charts Add Link Nearby VenuesMetar ALERT Operation Metar Decoded Social comments

AIRNAV info for KBNO